Time;durP1;ratioP1;P1;durP2;ratioP2;P2;SDS_P1;SDS_P2;PMS_P1;PMS_P2;Temp;Humidity;BMP_temperature;BMP_pressure;BME280_temperature;BME280_humidity;BME280_pressure;Samples;Min_cycle;Max_cycle;Signal;HPM_P1;HPM_P2
2023/10/04 00:02:32;;;;;;;3.78;0.55;;;;;;;;;;5915868;28;20055;-73
2023/10/04 00:05:24;;;;;;;1.40;0.52;;;;;;;;;;5910530;28;20139;-72
2023/10/04 00:08:16;;;;;;;0.52;0.50;;;;;;;;;;5909617;28;20071;-74
2023/10/04 00:11:12;;;;;;;0.55;0.35;;;;;;;;;;5910623;28;20044;-73
2023/10/04 00:14:03;;;;;;;0.65;0.50;;;;;;;;;;5893361;28;20044;-73
2023/10/04 00:16:54;;;;;;;0.35;0.32;;;;;;;;;;5910820;28;20051;-71
2023/10/04 00:19:45;;;;;;;1.35;0.45;;;;;;;;;;5910278;28;20119;-73
2023/10/04 00:22:39;;;;;;;2.72;1.52;;;;;;;;;;5910250;28;20068;-71
2023/10/04 00:25:30;;;;;;;1.65;1.05;;;;;;;;;;5910077;28;20040;-73
2023/10/04 00:28:21;;;;;;;3.08;0.57;;;;;;;;;;5910155;28;20048;-72
2023/10/04 00:31:13;;;;;;;3.15;0.95;;;;;;;;;;5910111;28;20044;-72
2023/10/04 00:34:04;;;;;;;2.38;1.70;;;;;;;;;;5910159;28;20075;-73
2023/10/04 00:36:56;;;;;;;0.82;0.63;;;;;;;;;;5910715;28;20074;-73
2023/10/04 00:39:48;;;;;;;1.88;1.23;;;;;;;;;;5912832;28;20056;-72
2023/10/04 00:42:40;;;;;;;1.83;1.27;;;;;;;;;;5914440;28;20041;-72
2023/10/04 00:45:34;;;;;;;2.72;1.00;;;;;;;;;;5914470;28;20127;-73
2023/10/04 00:48:31;;;;;;;3.83;0.70;;;;;;;;;;5914698;28;20044;-73
2023/10/04 00:51:23;;;;;;;3.05;1.05;;;;;;;;;;5914748;28;20557;-72
2023/10/04 00:54:15;;;;;;;3.30;1.42;;;;;;;;;;5905903;28;20045;-72
2023/10/04 00:57:10;;;;;;;1.85;1.25;;;;;;;;;;5900249;28;20041;-73
2023/10/04 01:00:06;;;;;;;1.05;0.98;;;;;;;;;;5888718;28;20045;-74
2023/10/04 01:02:57;;;;;;;3.25;1.17;;;;;;;;;;5898828;28;20049;-72
2023/10/04 01:05:51;;;;;;;4.57;1.02;;;;;;;;;;5891051;28;20037;-73
2023/10/04 01:08:42;;;;;;;1.17;0.70;;;;;;;;;;5890770;28;20049;-72
2023/10/04 01:11:35;;;;;;;0.68;0.55;;;;;;;;;;5890581;28;20055;-72
2023/10/04 01:14:27;;;;;;;1.20;0.73;;;;;;;;;;5890420;28;20061;-73
2023/10/04 01:17:18;;;;;;;1.48;1.10;;;;;;;;;;5890206;28;20052;-72
2023/10/04 01:20:13;;;;;;;0.95;0.65;;;;;;;;;;5890409;28;20041;-73
2023/10/04 01:23:06;;;;;;;5.07;0.80;;;;;;;;;;5890400;28;20057;-73
2023/10/04 01:25:57;;;;;;;1.15;0.60;;;;;;;;;;5874160;28;20075;-72
2023/10/04 01:28:47;;;;;;;2.97;1.23;;;;;;;;;;5904133;28;20067;-72
2023/10/04 01:31:38;;;;;;;1.52;1.13;;;;;;;;;;5900325;28;20041;-73
2023/10/04 01:34:29;;;;;;;1.27;1.15;;;;;;;;;;5893247;28;20042;-72
2023/10/04 01:37:20;;;;;;;0.63;0.57;;;;;;;;;;5913639;28;20060;-72
2023/10/04 01:40:12;;;;;;;1.15;0.55;;;;;;;;;;5913661;28;20132;-72
2023/10/04 01:43:14;;;;;;;4.65;1.58;;;;;;;;;;5914028;28;20048;-72
2023/10/04 01:46:06;;;;;;;1.08;0.85;;;;;;;;;;5913426;28;20041;-74
2023/10/04 01:48:57;;;;;;;3.25;0.63;;;;;;;;;;5914101;28;20045;-72
2023/10/04 01:51:48;;;;;;;0.38;0.38;;;;;;;;;;5912739;28;20486;-72
2023/10/04 01:54:39;;;;;;;0.52;0.47;;;;;;;;;;5913383;28;20051;-74
2023/10/04 01:57:30;;;;;;;1.67;1.13;;;;;;;;;;5895313;28;20483;-72
2023/10/04 02:00:23;;;;;;;0.70;0.63;;;;;;;;;;5913132;28;20048;-73
2023/10/04 02:03:14;;;;;;;1.40;0.85;;;;;;;;;;5913352;28;20045;-72
2023/10/04 02:06:07;;;;;;;0.98;0.63;;;;;;;;;;5913428;28;20048;-72
2023/10/04 02:09:00;;;;;;;15.80;1.30;;;;;;;;;;5905377;28;20059;-72
2023/10/04 02:11:51;;;;;;;0.57;0.47;;;;;;;;;;5913206;28;20047;-73
2023/10/04 02:14:41;;;;;;;1.67;0.90;;;;;;;;;;5895080;28;20044;-73
2023/10/04 02:17:32;;;;;;;1.30;1.05;;;;;;;;;;5894918;28;20506;-72
2023/10/04 02:20:28;;;;;;;2.15;0.95;;;;;;;;;;5912445;28;20169;-73
2023/10/04 02:23:19;;;;;;;5.43;1.10;;;;;;;;;;5912622;28;20056;-73
2023/10/04 02:26:10;;;;;;;3.72;0.73;;;;;;;;;;5912622;28;20052;-72
2023/10/04 02:29:01;;;;;;;0.75;0.63;;;;;;;;;;5912715;28;20045;-74
2023/10/04 02:31:52;;;;;;;5.00;0.82;;;;;;;;;;5913247;28;20052;-73
2023/10/04 02:34:43;;;;;;;1.08;0.50;;;;;;;;;;5912417;28;20538;-71
2023/10/04 02:37:34;;;;;;;2.25;1.20;;;;;;;;;;5911964;28;20052;-73
2023/10/04 02:40:27;;;;;;;3.67;0.88;;;;;;;;;;5912219;28;20060;-73
2023/10/04 02:43:20;;;;;;;0.60;0.60;;;;;;;;;;5912326;28;20471;-72
2023/10/04 02:46:11;;;;;;;0.35;0.35;;;;;;;;;;5894430;28;20045;-72
2023/10/04 02:49:03;;;;;;;1.38;0.45;;;;;;;;;;5912405;28;20365;-73
2023/10/04 02:51:54;;;;;;;0.73;0.70;;;;;;;;;;5912692;28;20123;-74
2023/10/04 02:54:44;;;;;;;1.17;0.75;;;;;;;;;;5912032;28;20130;-71
2023/10/04 02:57:35;;;;;;;0.65;0.60;;;;;;;;;;5912003;28;20048;-73
2023/10/04 03:00:26;;;;;;;0.73;0.70;;;;;;;;;;5911784;28;20044;-74
2023/10/04 03:03:24;;;;;;;1.55;0.95;;;;;;;;;;5909678;28;20460;-73
2023/10/04 03:06:16;;;;;;;0.75;0.50;;;;;;;;;;5911888;28;20045;-73
2023/10/04 03:09:07;;;;;;;0.90;0.50;;;;;;;;;;5911358;28;20051;-72
2023/10/04 03:11:58;;;;;;;1.38;0.75;;;;;;;;;;5911972;28;20072;-73
2023/10/04 03:14:48;;;;;;;0.47;0.30;;;;;;;;;;5911611;28;20049;-72
2023/10/04 03:17:39;;;;;;;0.88;0.40;;;;;;;;;;5911255;28;20090;-73
2023/10/04 03:20:30;;;;;;;1.98;1.02;;;;;;;;;;5911128;28;20496;-73
2023/10/04 03:23:27;;;;;;;0.95;0.28;;;;;;;;;;5911213;28;20049;-72
2023/10/04 03:26:19;;;;;;;1.38;0.75;;;;;;;;;;5911186;28;20143;-71
2023/10/04 03:29:11;;;;;;;1.98;0.80;;;;;;;;;;5911407;28;20064;-72
2023/10/04 03:32:09;;;;;;;3.05;0.65;;;;;;;;;;5900202;28;20050;-72
2023/10/04 03:35:02;;;;;;;3.77;1.93;;;;;;;;;;5878546;28;20174;-72
2023/10/04 03:37:58;;;;;;;0.38;0.38;;;;;;;;;;5910943;28;20051;-72
2023/10/04 03:40:49;;;;;;;0.63;0.50;;;;;;;;;;5910926;28;20423;-74
2023/10/04 03:43:40;;;;;;;0.90;0.70;;;;;;;;;;5910696;28;20052;-73
2023/10/04 03:46:31;;;;;;;5.45;0.85;;;;;;;;;;5910841;28;20396;-73
2023/10/04 03:49:24;;;;;;;0.50;0.43;;;;;;;;;;5910953;28;20486;-72
2023/10/04 03:52:15;;;;;;;0.50;0.50;;;;;;;;;;5910525;28;20072;-72
2023/10/04 03:55:10;;;;;;;0.85;0.40;;;;;;;;;;5910892;28;20411;-74
2023/10/04 03:58:00;;;;;;;8.48;0.93;;;;;;;;;;5893561;28;20045;-74
2023/10/04 04:00:51;;;;;;;1.35;0.55;;;;;;;;;;5911566;28;20056;-72
2023/10/04 04:03:44;;;;;;;0.40;0.32;;;;;;;;;;5910852;28;20044;-74
2023/10/04 04:06:35;;;;;;;0.50;0.50;;;;;;;;;;5910746;28;20049;-72
2023/10/04 04:09:27;;;;;;;0.60;0.52;;;;;;;;;;5900032;28;20041;-72
2023/10/04 04:12:18;;;;;;;0.88;0.57;;;;;;;;;;5910262;28;20049;-72
2023/10/04 04:15:12;;;;;;;1.48;0.35;;;;;;;;;;5917000;28;20049;-74
2023/10/04 04:18:17;;;;;;;1.83;1.02;;;;;;;;;;5918437;28;20048;-74
2023/10/04 04:21:08;;;;;;;0.40;0.40;;;;;;;;;;5918512;28;20141;-72
2023/10/04 04:23:59;;;;;;;0.43;0.43;;;;;;;;;;5919006;28;20047;-74
2023/10/04 04:26:55;;;;;;;3.50;0.65;;;;;;;;;;5918448;28;20045;-73
2023/10/04 04:29:45;;;;;;;1.10;0.85;;;;;;;;;;5918354;28;20051;-72
2023/10/04 04:32:36;;;;;;;1.60;0.70;;;;;;;;;;5900245;28;20059;-73
2023/10/04 04:38:24;;;;;;;10.20;1.42;;;;;;;;;;5918095;28;20048;-73
2023/10/04 04:41:21;;;;;;;3.28;0.80;;;;;;;;;;5917950;28;20403;-72
2023/10/04 04:44:19;;;;;;;7.43;1.00;;;;;;;;;;5918066;28;20490;-73
2023/10/04 04:47:11;;;;;;;4.00;0.73;;;;;;;;;;5917846;28;20043;-74
2023/10/04 04:50:03;;;;;;;0.30;0.30;;;;;;;;;;5918263;28;20060;-74
2023/10/04 04:52:53;;;;;;;0.60;0.60;;;;;;;;;;5918543;28;20432;-73
2023/10/04 04:55:45;;;;;;;1.30;0.55;;;;;;;;;;5917642;28;20522;-73
2023/10/04 04:58:36;;;;;;;1.83;1.08;;;;;;;;;;5917754;28;20048;-73
2023/10/04 05:01:31;;;;;;;0.63;0.50;;;;;;;;;;5917686;28;20045;-72
2023/10/04 05:04:22;;;;;;;4.03;0.80;;;;;;;;;;5917721;28;20402;-72
2023/10/04 05:07:13;;;;;;;1.38;0.82;;;;;;;;;;5917643;28;20052;-74
2023/10/04 05:10:10;;;;;;;2.38;0.75;;;;;;;;;;5917459;28;20125;-72
2023/10/04 05:13:01;;;;;;;1.83;0.93;;;;;;;;;;5917521;28;20052;-74
2023/10/04 05:15:52;;;;;;;2.42;1.35;;;;;;;;;;5900310;28;20483;-72
2023/10/04 05:18:43;;;;;;;2.78;1.65;;;;;;;;;;5917586;28;20037;-73
2023/10/04 05:21:34;;;;;;;5.57;1.08;;;;;;;;;;5916164;28;20055;-73
2023/10/04 05:24:25;;;;;;;1.23;0.60;;;;;;;;;;5917639;28;20056;-72
2023/10/04 05:27:16;;;;;;;0.77;0.55;;;;;;;;;;5912658;28;20048;-73
2023/10/04 05:30:08;;;;;;;3.00;0.82;;;;;;;;;;5913778;28;20468;-73
2023/10/04 05:32:58;;;;;;;0.57;0.57;;;;;;;;;;5914211;28;20183;-71
2023/10/04 05:35:55;;;;;;;3.33;1.05;;;;;;;;;;5913973;28;20044;-72
2023/10/04 05:38:45;;;;;;;1.85;0.63;;;;;;;;;;5913642;28;20041;-73
2023/10/04 05:41:36;;;;;;;2.22;0.93;;;;;;;;;;5913517;28;20044;-72
2023/10/04 05:44:27;;;;;;;0.17;0.17;;;;;;;;;;5913635;28;20044;-73
2023/10/04 05:47:22;;;;;;;0.50;0.50;;;;;;;;;;5913294;28;20044;-74
2023/10/04 05:50:17;;;;;;;0.45;0.45;;;;;;;;;;5913517;28;20510;-74
2023/10/04 05:53:09;;;;;;;2.75;0.77;;;;;;;;;;5896043;28;20063;-73
2023/10/04 05:56:00;;;;;;;11.77;1.38;;;;;;;;;;5913647;28;20047;-72
2023/10/04 05:58:51;;;;;;;2.40;1.73;;;;;;;;;;5913550;28;20045;-74
2023/10/04 06:01:42;;;;;;;3.13;1.55;;;;;;;;;;5895293;28;20055;-73
2023/10/04 06:04:33;;;;;;;3.28;1.27;;;;;;;;;;5913401;28;20190;-73
2023/10/04 06:07:24;;;;;;;3.53;1.15;;;;;;;;;;5912968;28;20040;-72
2023/10/04 06:10:16;;;;;;;1.30;0.80;;;;;;;;;;5895301;28;20507;-72
2023/10/04 06:13:13;;;;;;;1.38;0.75;;;;;;;;;;5912974;28;20036;-73
2023/10/04 06:16:04;;;;;;;0.75;0.73;;;;;;;;;;5896319;28;20497;-72
2023/10/04 06:18:58;;;;;;;2.25;1.15;;;;;;;;;;5913405;28;20041;-72
2023/10/04 06:21:49;;;;;;;1.83;1.50;;;;;;;;;;5912762;28;20040;-72
2023/10/04 06:24:40;;;;;;;5.38;1.20;;;;;;;;;;5912667;28;20056;-73
2023/10/04 06:27:35;;;;;;;4.40;1.27;;;;;;;;;;5912561;28;20487;-73
2023/10/04 06:30:31;;;;;;;2.38;0.77;;;;;;;;;;5912255;28;20052;-72
2023/10/04 06:33:22;;;;;;;1.73;0.98;;;;;;;;;;5894471;28;20044;-73
2023/10/04 06:36:13;;;;;;;0.47;0.47;;;;;;;;;;5912363;28;20044;-72
2023/10/04 06:39:07;;;;;;;0.65;0.60;;;;;;;;;;5912140;28;20159;-72
2023/10/04 06:41:58;;;;;;;1.60;1.13;;;;;;;;;;5912449;28;20076;-73
2023/10/04 06:44:49;;;;;;;1.85;1.17;;;;;;;;;;5912213;28;20087;-71
2023/10/04 06:47:43;;;;;;;1.63;0.68;;;;;;;;;;5912023;28;20055;-73
2023/10/04 06:50:38;;;;;;;1.25;0.65;;;;;;;;;;5911985;28;20052;-72
2023/10/04 06:53:30;;;;;;;1.30;0.80;;;;;;;;;;5894577;28;20052;-72
2023/10/04 06:56:20;;;;;;;3.08;0.85;;;;;;;;;;5911674;28;20040;-73
2023/10/04 06:59:12;;;;;;;1.02;0.80;;;;;;;;;;5911671;28;20040;-73
2023/10/04 07:02:03;;;;;;;1.02;0.90;;;;;;;;;;5911864;28;20055;-72
2023/10/04 07:04:58;;;;;;;0.63;0.60;;;;;;;;;;5904160;28;20044;-72
2023/10/04 07:07:57;;;;;;;1.75;0.75;;;;;;;;;;5905616;28;20075;-72
2023/10/04 07:10:52;;;;;;;0.95;0.43;;;;;;;;;;5882783;28;20055;-73
2023/10/04 07:13:43;;;;;;;3.83;0.95;;;;;;;;;;5903150;28;20044;-74
2023/10/04 07:16:34;;;;;;;3.20;0.55;;;;;;;;;;5911344;28;20614;-72
2023/10/04 07:19:26;;;;;;;5.45;0.93;;;;;;;;;;5911092;28;20045;-72
2023/10/04 07:22:21;;;;;;;0.98;0.50;;;;;;;;;;5910816;28;20048;-73
2023/10/04 07:25:15;;;;;;;3.92;1.10;;;;;;;;;;5911320;28;20048;-72
2023/10/04 07:28:11;;;;;;;6.63;1.52;;;;;;;;;;5893342;28;20057;-73
2023/10/04 07:31:02;;;;;;;0.93;0.70;;;;;;;;;;5911368;28;20423;-72
2023/10/04 07:33:53;;;;;;;0.57;0.22;;;;;;;;;;5911273;28;20041;-72
2023/10/04 07:36:45;;;;;;;0.45;0.40;;;;;;;;;;5911064;28;20102;-73
2023/10/04 07:39:37;;;;;;;0.32;0.32;;;;;;;;;;5909503;28;20052;-73
2023/10/04 07:42:28;;;;;;;2.92;0.60;;;;;;;;;;5910700;28;20508;-72
2023/10/04 07:45:28;;;;;;;3.33;0.68;;;;;;;;;;5910666;28;20071;-72
2023/10/04 07:48:19;;;;;;;2.53;0.95;;;;;;;;;;5909327;28;20476;-73
2023/10/04 07:51:10;;;;;;;1.55;1.02;;;;;;;;;;5910967;28;20048;-72
2023/10/04 07:54:01;;;;;;;0.45;0.25;;;;;;;;;;5911065;28;20436;-75
2023/10/04 07:56:53;;;;;;;0.35;0.30;;;;;;;;;;5911356;28;20124;-73
2023/10/04 07:59:44;;;;;;;1.85;0.90;;;;;;;;;;5893064;28;20369;-72
2023/10/04 08:02:35;;;;;;;0.55;0.50;;;;;;;;;;5910277;28;20052;-72
2023/10/04 08:05:29;;;;;;;0.15;0.15;;;;;;;;;;5910702;28;20040;-73
2023/10/04 08:08:20;;;;;;;0.98;0.73;;;;;;;;;;5893144;28;20048;-74
2023/10/04 08:11:11;;;;;;;1.52;0.63;;;;;;;;;;5910896;28;20395;-72
2023/10/04 08:14:07;;;;;;;5.30;1.55;;;;;;;;;;5910699;28;20044;-72
2023/10/04 08:16:58;;;;;;;1.30;0.77;;;;;;;;;;5893350;28;20037;-73
2023/10/04 08:19:50;;;;;;;0.30;0.30;;;;;;;;;;5910735;28;20063;-72
2023/10/04 08:22:41;;;;;;;6.70;0.45;;;;;;;;;;5910368;28;20053;-74
2023/10/04 08:25:34;;;;;;;0.57;0.50;;;;;;;;;;5892905;28;20040;-73
2023/10/04 08:28:26;;;;;;;0.95;0.80;;;;;;;;;;5910679;28;20501;-73
2023/10/04 08:31:18;;;;;;;0.98;0.50;;;;;;;;;;5910714;28;20044;-73
2023/10/04 08:34:09;;;;;;;2.50;0.28;;;;;;;;;;5910691;28;20559;-72
2023/10/04 08:37:00;;;;;;;0.55;0.10;;;;;;;;;;5910934;28;20463;-74
2023/10/04 08:39:50;;;;;;;0.95;0.55;;;;;;;;;;5892915;28;20036;-71
2023/10/04 08:42:41;;;;;;;0.63;0.40;;;;;;;;;;5910443;28;20103;-72
2023/10/04 08:45:35;;;;;;;4.88;0.93;;;;;;;;;;5910359;28;20510;-74
2023/10/04 08:48:29;;;;;;;0.40;0.32;;;;;;;;;;5892856;28;20044;-73
2023/10/04 08:51:48;;;;;;;0.80;0.55;;;;;;;;;;5910183;28;20067;-73
2023/10/04 08:54:42;;;;;;;0.80;0.47;;;;;;;;;;5910258;28;20044;-73
2023/10/04 08:57:39;;;;;;;2.25;0.70;;;;;;;;;;5892817;28;20044;-73
2023/10/04 09:00:31;;;;;;;0.40;0.30;;;;;;;;;;5893308;28;20488;-72
2023/10/04 09:03:23;;;;;;;2.72;0.50;;;;;;;;;;5914618;28;20048;-72
2023/10/04 09:06:14;;;;;;;1.05;0.57;;;;;;;;;;5896922;28;20510;-72
2023/10/04 09:09:06;;;;;;;2.63;1.08;;;;;;;;;;5914393;28;20106;-72
2023/10/04 09:11:57;;;;;;;0.98;0.52;;;;;;;;;;5897471;28;20426;-71
2023/10/04 09:14:48;;;;;;;0.28;0.28;;;;;;;;;;5914275;28;20037;-72
2023/10/04 09:17:47;;;;;;;1.00;0.88;;;;;;;;;;5914071;28;20041;-73
2023/10/04 09:20:38;;;;;;;2.10;0.57;;;;;;;;;;5914123;28;20052;-73
2023/10/04 09:23:29;;;;;;;1.63;0.70;;;;;;;;;;5913853;28;20119;-73
2023/10/04 09:26:20;;;;;;;4.45;1.35;;;;;;;;;;5896412;28;20048;-73
2023/10/04 09:29:11;;;;;;;1.17;0.43;;;;;;;;;;5912697;28;20427;-72
2023/10/04 09:32:04;;;;;;;5.63;0.50;;;;;;;;;;5913907;28;20490;-71
2023/10/04 09:34:59;;;;;;;0.20;0.20;;;;;;;;;;5896742;28;20055;-73
2023/10/04 09:37:50;;;;;;;0.50;0.40;;;;;;;;;;5912781;28;20059;-72
2023/10/04 09:40:55;;;;;;;0.90;0.52;;;;;;;;;;5913363;28;20396;-72
2023/10/04 09:43:47;;;;;;;1.20;0.63;;;;;;;;;;5913863;28;20611;-73
2023/10/04 09:46:54;;;;;;;0.35;0.30;;;;;;;;;;5913633;28;20051;-73
2023/10/04 09:49:49;;;;;;;2.25;0.77;;;;;;;;;;5913612;28;20045;-74
2023/10/04 09:52:39;;;;;;;0.38;0.38;;;;;;;;;;5913660;28;20059;-73
2023/10/04 09:55:33;;;;;;;1.02;0.55;;;;;;;;;;5913556;28;20049;-73
2023/10/04 09:58:24;;;;;;;0.35;0.35;;;;;;;;;;5911996;28;20040;-74
2023/10/04 10:01:17;;;;;;;2.60;1.23;;;;;;;;;;5912149;28;20044;-74
2023/10/04 10:04:43;;;;;;;1.48;0.70;;;;;;;;;;5895675;28;20138;-73
2023/10/04 10:07:36;;;;;;;4.38;0.75;;;;;;;;;;5898500;28;20508;-72
2023/10/04 10:10:27;;;;;;;3.00;0.52;;;;;;;;;;5913071;28;20052;-73
2023/10/04 10:13:20;;;;;;;0.10;0.10;;;;;;;;;;5894802;28;20133;-73
2023/10/04 10:16:12;;;;;;;1.58;0.63;;;;;;;;;;5912882;28;20044;-73
2023/10/04 10:19:04;;;;;;;2.92;0.60;;;;;;;;;;5895601;28;20044;-73
2023/10/04 10:22:16;;;;;;;6.88;0.50;;;;;;;;;;5913277;28;20051;-73
2023/10/04 10:25:14;;;;;;;3.08;0.57;;;;;;;;;;5912735;28;20186;-73
2023/10/04 10:28:21;;;;;;;0.20;0.20;;;;;;;;;;5912657;28;20102;-74
2023/10/04 10:31:19;;;;;;;2.63;0.40;;;;;;;;;;5912510;28;20044;-74
2023/10/04 10:34:12;;;;;;;0.10;0.10;;;;;;;;;;5904299;28;20076;-72
2023/10/04 10:37:15;;;;;;;0.88;0.17;;;;;;;;;;5912514;28;20088;-73
2023/10/04 10:40:26;;;;;;;0.50;0.30;;;;;;;;;;5902579;28;20053;-75
2023/10/04 10:43:18;;;;;;;15.82;0.55;;;;;;;;;;5897532;28;20048;-73
2023/10/04 10:47:18;;;;;;;1.38;0.80;;;;;;;;;;5912281;28;20047;-73
2023/10/04 10:50:33;;;;;;;0.50;0.38;;;;;;;;;;5903865;28;20047;-73
2023/10/04 10:53:25;;;;;;;0.75;0.40;;;;;;;;;;5894316;28;20041;-73
2023/10/04 10:56:16;;;;;;;0.57;0.30;;;;;;;;;;5912051;28;20045;-72
2023/10/04 10:59:07;;;;;;;0.32;0.32;;;;;;;;;;5911659;28;20061;-73
2023/10/04 11:01:59;;;;;;;1.20;0.40;;;;;;;;;;5912096;28;20045;-73
2023/10/04 11:04:51;;;;;;;3.53;0.73;;;;;;;;;;5912115;28;20475;-74
2023/10/04 11:07:46;;;;;;;13.52;1.10;;;;;;;;;;5911765;28;20051;-73
2023/10/04 11:10:38;;;;;;;0.43;0.15;;;;;;;;;;5911398;28;20045;-72
2023/10/04 11:13:30;;;;;;;0.95;0.50;;;;;;;;;;5911467;28;20044;-74
2023/10/04 11:16:21;;;;;;;0.85;0.50;;;;;;;;;;5911661;28;20056;-73
2023/10/04 11:19:12;;;;;;;1.08;0.93;;;;;;;;;;5911623;28;20622;-72
2023/10/04 11:22:03;;;;;;;0.45;0.40;;;;;;;;;;5911661;28;20044;-73
2023/10/04 11:24:57;;;;;;;0.22;0.22;;;;;;;;;;5911188;28;20068;-74
2023/10/04 11:27:51;;;;;;;1.13;0.50;;;;;;;;;;5911101;28;20048;-72
2023/10/04 11:30:42;;;;;;;0.45;0.20;;;;;;;;;;5911427;28;20040;-74
2023/10/04 11:33:55;;;;;;;1.02;0.77;;;;;;;;;;5893558;28;20048;-72
2023/10/04 11:36:47;;;;;;;5.95;1.13;;;;;;;;;;5911464;28;20128;-72
2023/10/04 11:39:39;;;;;;;2.00;0.63;;;;;;;;;;5883244;28;20049;-72
2023/10/04 11:42:30;;;;;;;1.38;0.52;;;;;;;;;;5910101;28;20050;-73
2023/10/04 11:45:26;;;;;;;1.00;0.57;;;;;;;;;;5910840;28;20086;-72
2023/10/04 11:48:21;;;;;;;0.43;0.32;;;;;;;;;;5911060;28;20044;-73
2023/10/04 11:51:27;;;;;;;1.38;0.65;;;;;;;;;;5911510;28;20496;-73
2023/10/04 11:54:18;;;;;;;0.32;0.32;;;;;;;;;;5911009;28;20048;-72
2023/10/04 11:57:11;;;;;;;0.52;0.30;;;;;;;;;;5910920;28;20495;-75
2023/10/04 12:00:16;;;;;;;1.85;0.65;;;;;;;;;;5910766;28;20475;-73
2023/10/04 12:03:09;;;;;;;1.20;0.77;;;;;;;;;;5910525;28;20119;-74
2023/10/04 12:06:00;;;;;;;0.25;0.25;;;;;;;;;;5911313;28;20064;-73
2023/10/04 12:08:57;;;;;;;1.27;0.43;;;;;;;;;;5893021;28;20060;-73
2023/10/04 12:11:48;;;;;;;3.95;0.65;;;;;;;;;;5909375;28;20120;-73
2023/10/04 12:14:40;;;;;;;19.45;1.75;;;;;;;;;;5910692;28;20048;-73
2023/10/04 12:17:31;;;;;;;1.00;0.60;;;;;;;;;;5910008;28;20060;-75
2023/10/04 12:20:24;;;;;;;6.38;0.82;;;;;;;;;;5890672;28;20044;-72
2023/10/04 12:23:15;;;;;;;0.52;0.20;;;;;;;;;;5929362;28;20047;-73
2023/10/04 12:26:06;;;;;;;0.45;0.43;;;;;;;;;;5922107;28;20490;-73
2023/10/04 12:28:57;;;;;;;0.47;0.40;;;;;;;;;;5907333;28;20420;-73
2023/10/04 12:31:50;;;;;;;1.00;0.70;;;;;;;;;;5919388;28;20053;-72
2023/10/04 12:34:41;;;;;;;4.65;0.40;;;;;;;;;;5910367;28;20518;-72
2023/10/04 12:37:32;;;;;;;1.20;1.00;;;;;;;;;;5914255;28;20387;-73
2023/10/04 12:40:26;;;;;;;1.88;0.32;;;;;;;;;;5904490;28;20052;-72
2023/10/04 12:43:16;;;;;;;1.27;0.57;;;;;;;;;;5936788;28;20048;-72
2023/10/04 12:46:07;;;;;;;1.15;0.82;;;;;;;;;;5906990;28;20051;-73
2023/10/04 12:48:58;;;;;;;1.98;0.73;;;;;;;;;;5917646;28;20135;-72
2023/10/04 12:51:51;;;;;;;1.38;0.63;;;;;;;;;;5896860;28;20056;-73
2023/10/04 12:54:42;;;;;;;0.98;0.40;;;;;;;;;;5896529;28;20044;-73
2023/10/04 12:57:34;;;;;;;1.13;0.77;;;;;;;;;;5922259;28;20052;-75
2023/10/04 13:00:25;;;;;;;0.77;0.40;;;;;;;;;;5920062;28;20041;-74
2023/10/04 13:03:17;;;;;;;3.92;1.02;;;;;;;;;;5914151;28;20495;-73
2023/10/04 13:06:14;;;;;;;1.38;0.80;;;;;;;;;;5913983;28;20139;-73
2023/10/04 13:09:05;;;;;;;1.10;0.70;;;;;;;;;;5929884;28;20040;-73
2023/10/04 13:11:55;;;;;;;6.22;0.55;;;;;;;;;;5914421;28;20044;-72
2023/10/04 13:14:46;;;;;;;4.13;0.55;;;;;;;;;;5913191;28;20076;-72
2023/10/04 13:17:37;;;;;;;0.40;0.32;;;;;;;;;;5920329;28;20471;-73
2023/10/04 13:20:29;;;;;;;1.00;0.40;;;;;;;;;;5921739;28;20040;-73
2023/10/04 13:23:19;;;;;;;1.02;0.50;;;;;;;;;;5913406;28;20049;-73
2023/10/04 13:26:11;;;;;;;1.85;0.68;;;;;;;;;;5913347;28;20052;-73
2023/10/04 13:29:03;;;;;;;1.05;0.45;;;;;;;;;;5926226;28;20453;-74
2023/10/04 13:31:54;;;;;;;0.73;0.35;;;;;;;;;;5913973;28;20048;-72
2023/10/04 13:34:45;;;;;;;0.70;0.55;;;;;;;;;;5911778;28;20105;-73
2023/10/04 13:37:36;;;;;;;0.45;0.40;;;;;;;;;;5899658;28;20044;-73
2023/10/04 13:40:27;;;;;;;2.05;0.52;;;;;;;;;;5921872;28;20052;-73
2023/10/04 13:43:21;;;;;;;1.52;0.43;;;;;;;;;;5913259;28;20048;-74
2023/10/04 13:46:13;;;;;;;1.50;0.55;;;;;;;;;;5894235;28;20135;-74
2023/10/04 13:49:05;;;;;;;9.18;1.00;;;;;;;;;;5925557;28;20127;-74
2023/10/04 13:51:58;;;;;;;2.10;0.68;;;;;;;;;;5913817;28;20063;-73
2023/10/04 13:54:51;;;;;;;0.47;0.47;;;;;;;;;;5895289;28;20048;-73
2023/10/04 13:57:46;;;;;;;1.10;0.60;;;;;;;;;;5914442;28;20668;-72
2023/10/04 14:00:46;;;;;;;2.58;1.02;;;;;;;;;;5901832;28;20498;-73
2023/10/04 14:03:38;;;;;;;1.77;0.50;;;;;;;;;;5912031;28;20607;-73
2023/10/04 14:06:31;;;;;;;11.38;0.85;;;;;;;;;;5912748;28;20048;-73
2023/10/04 14:09:22;;;;;;;7.80;0.85;;;;;;;;;;5923275;28;20573;-74
2023/10/04 14:12:13;;;;;;;0.75;0.30;;;;;;;;;;5912512;28;20517;-73
2023/10/04 14:15:13;;;;;;;1.38;0.40;;;;;;;;;;5912272;28;20055;-73
2023/10/04 14:18:06;;;;;;;1.70;0.90;;;;;;;;;;5917277;28;20044;-73
2023/10/04 14:20:57;;;;;;;6.95;1.10;;;;;;;;;;5909278;28;20047;-74
2023/10/04 14:23:48;;;;;;;1.35;0.50;;;;;;;;;;5887284;28;20392;-73
2023/10/04 14:26:39;;;;;;;2.60;0.82;;;;;;;;;;5883114;28;20147;-73
2023/10/04 14:29:30;;;;;;;1.83;0.68;;;;;;;;;;5900669;28;20040;-72
2023/10/04 14:32:21;;;;;;;1.75;0.85;;;;;;;;;;5910247;28;20048;-74
2023/10/04 14:35:12;;;;;;;1.40;0.65;;;;;;;;;;5911879;28;20045;-74
2023/10/04 14:38:03;;;;;;;0.95;0.65;;;;;;;;;;5908934;28;20049;-73
2023/10/04 14:40:54;;;;;;;3.63;0.75;;;;;;;;;;5916653;28;20051;-74
2023/10/04 14:43:52;;;;;;;8.73;1.10;;;;;;;;;;5911500;28;20063;-73
2023/10/04 14:46:43;;;;;;;3.88;1.00;;;;;;;;;;5892456;28;20036;-73
2023/10/04 14:49:34;;;;;;;0.50;0.50;;;;;;;;;;5910129;28;20578;-73
2023/10/04 14:52:27;;;;;;;2.58;0.50;;;;;;;;;;5893935;28;20059;-73
2023/10/04 14:55:19;;;;;;;1.10;0.70;;;;;;;;;;5910154;28;20041;-73
2023/10/04 14:58:10;;;;;;;2.40;0.63;;;;;;;;;;5911588;28;20052;-74
2023/10/04 15:01:07;;;;;;;1.10;0.60;;;;;;;;;;5912091;28;20046;-74
2023/10/04 15:03:58;;;;;;;2.75;0.88;;;;;;;;;;5912646;28;20440;-72
2023/10/04 15:06:50;;;;;;;2.47;0.82;;;;;;;;;;5911972;28;20041;-73
2023/10/04 15:09:41;;;;;;;1.55;0.85;;;;;;;;;;5911389;28;20408;-73
2023/10/04 15:12:32;;;;;;;2.05;0.95;;;;;;;;;;5911276;28;20095;-73
2023/10/04 15:15:24;;;;;;;4.15;1.00;;;;;;;;;;5888910;28;20045;-73
2023/10/04 15:18:15;;;;;;;2.42;0.85;;;;;;;;;;5910913;28;20052;-73
2023/10/04 15:21:10;;;;;;;3.17;1.20;;;;;;;;;;5916466;28;20103;-74
2023/10/04 15:24:03;;;;;;;2.97;1.00;;;;;;;;;;5929621;28;20056;-74
2023/10/04 15:26:54;;;;;;;6.38;1.05;;;;;;;;;;5900565;28;20351;-74
2023/10/04 15:29:45;;;;;;;1.20;0.43;;;;;;;;;;5923386;28;20127;-73
2023/10/04 15:32:37;;;;;;;3.25;1.33;;;;;;;;;;5911135;28;20380;-73
2023/10/04 15:35:28;;;;;;;5.22;1.13;;;;;;;;;;5910860;28;20071;-74
2023/10/04 15:38:19;;;;;;;1.98;0.82;;;;;;;;;;5886237;28;20380;-73
2023/10/04 15:41:11;;;;;;;1.05;0.63;;;;;;;;;;5908606;28;20044;-72
2023/10/04 15:44:07;;;;;;;0.55;0.55;;;;;;;;;;5910206;28;20638;-73
2023/10/04 15:46:58;;;;;;;0.50;0.47;;;;;;;;;;5922070;28;20044;-73
2023/10/04 15:49:49;;;;;;;2.88;1.25;;;;;;;;;;5923614;28;20048;-72
2023/10/04 15:52:41;;;;;;;1.35;0.98;;;;;;;;;;5892688;28;20048;-72
2023/10/04 15:55:31;;;;;;;0.52;0.50;;;;;;;;;;5910327;28;20053;-73
2023/10/04 15:58:22;;;;;;;5.00;2.42;;;;;;;;;;5931922;28;20055;-73
2023/10/04 16:01:13;;;;;;;0.90;0.80;;;;;;;;;;5892528;28;20044;-74
2023/10/04 16:04:11;;;;;;;4.22;1.85;;;;;;;;;;5910010;28;20045;-74
2023/10/04 16:07:02;;;;;;;1.25;0.60;;;;;;;;;;5919794;28;20059;-73
2023/10/04 16:09:53;;;;;;;2.63;1.23;;;;;;;;;;5930670;28;20414;-73
2023/10/04 16:12:46;;;;;;;1.23;1.15;;;;;;;;;;5932431;28;20048;-74
2023/10/04 16:15:38;;;;;;;2.25;0.93;;;;;;;;;;5908721;28;20056;-74
2023/10/04 16:18:29;;;;;;;2.42;1.40;;;;;;;;;;5910365;28;20047;-73
2023/10/04 16:21:21;;;;;;;7.78;3.35;;;;;;;;;;5917089;28;20167;-74
2023/10/04 16:24:12;;;;;;;48.95;16.95;;;;;;;;;;5928374;28;20068;-73
2023/10/04 16:27:03;;;;;;;47.60;13.93;;;;;;;;;;5892408;28;20067;-73
2023/10/04 16:29:54;;;;;;;47.83;16.23;;;;;;;;;;5910117;28;20051;-73
2023/10/04 16:32:46;;;;;;;37.92;14.93;;;;;;;;;;5927867;28;20044;-74
2023/10/04 16:35:38;;;;;;;35.47;12.52;;;;;;;;;;5916513;28;20542;-74
2023/10/04 16:38:29;;;;;;;23.33;10.65;;;;;;;;;;5892151;28;20053;-74
2023/10/04 16:41:20;;;;;;;13.02;4.10;;;;;;;;;;5915010;28;20044;-73
2023/10/04 16:44:13;;;;;;;9.63;4.63;;;;;;;;;;5926525;28;20041;-74
2023/10/04 16:47:04;;;;;;;8.57;5.78;;;;;;;;;;5909995;28;20048;-74
2023/10/04 16:49:55;;;;;;;14.93;8.90;;;;;;;;;;5909955;28;20047;-73
2023/10/04 16:52:49;;;;;;;9.55;3.38;;;;;;;;;;5925864;28;20055;-73
2023/10/04 16:55:40;;;;;;;13.73;7.15;;;;;;;;;;5915731;28;20491;-73
2023/10/04 16:58:31;;;;;;;18.20;8.63;;;;;;;;;;5909437;28;20067;-74
2023/10/04 17:01:23;;;;;;;24.60;12.07;;;;;;;;;;5895275;28;20427;-74
2023/10/04 17:04:14;;;;;;;42.35;17.40;;;;;;;;;;5927782;28;20040;-73
2023/10/04 17:07:05;;;;;;;24.75;11.88;;;;;;;;;;5909828;28;20044;-75
2023/10/04 17:09:56;;;;;;;17.55;9.35;;;;;;;;;;5909973;28;20045;-73
2023/10/04 17:12:47;;;;;;;46.92;21.15;;;;;;;;;;5923946;28;20048;-74
2023/10/04 17:15:38;;;;;;;19.27;9.75;;;;;;;;;;5914633;28;20044;-73
2023/10/04 17:18:29;;;;;;;14.63;5.35;;;;;;;;;;5909732;28;20051;-73